sensor_id;sensor_type;location;lat;lon;timestamp;P1;durP1;ratioP1;P2;durP2;ratioP2
1682;SDS011;13252;53.596;10.060;2022-12-18T00:00:54;26.30;;;18.57;;
1682;SDS011;13252;53.596;10.060;2022-12-18T00:03:38;25.60;;;18.20;;
1682;SDS011;13252;53.596;10.060;2022-12-18T00:06:09;22.90;;;17.10;;
1682;SDS011;13252;53.596;10.060;2022-12-18T00:08:38;25.50;;;18.27;;
1682;SDS011;13252;53.596;10.060;2022-12-18T00:11:12;21.03;;;17.80;;
1682;SDS011;13252;53.596;10.060;2022-12-18T00:13:43;31.30;;;17.70;;
1682;SDS011;13252;53.596;10.060;2022-12-18T00:16:43;35.57;;;18.67;;
1682;SDS011;13252;53.596;10.060;2022-12-18T00:19:14;29.17;;;16.83;;
1682;SDS011;13252;53.596;10.060;2022-12-18T00:21:46;27.33;;;18.63;;
1682;SDS011;13252;53.596;10.060;2022-12-18T00:24:17;29.77;;;18.87;;
1682;SDS011;13252;53.596;10.060;2022-12-18T00:26:49;25.60;;;17.83;;
1682;SDS011;13252;53.596;10.060;2022-12-18T00:29:28;24.07;;;17.83;;
1682;SDS011;13252;53.596;10.060;2022-12-18T00:31:58;32.20;;;17.20;;
1682;SDS011;13252;53.596;10.060;2022-12-18T00:34:29;23.37;;;15.47;;
1682;SDS011;13252;53.596;10.060;2022-12-18T00:36:59;22.27;;;16.10;;
1682;SDS011;13252;53.596;10.060;2022-12-18T00:39:33;32.00;;;18.43;;
1682;SDS011;13252;53.596;10.060;2022-12-18T00:42:12;25.07;;;16.50;;
1682;SDS011;13252;53.596;10.060;2022-12-18T00:45:05;27.90;;;18.83;;
1682;SDS011;13252;53.596;10.060;2022-12-18T00:47:41;23.70;;;15.70;;
1682;SDS011;13252;53.596;10.060;2022-12-18T00:50:13;24.90;;;17.90;;
1682;SDS011;13252;53.596;10.060;2022-12-18T00:52:41;22.70;;;15.90;;
1682;SDS011;13252;53.596;10.060;2022-12-18T00:55:33;29.87;;;17.90;;
1682;SDS011;13252;53.596;10.060;2022-12-18T01:03:40;24.53;;;16.03;;
1682;SDS011;13252;53.596;10.060;2022-12-18T01:06:19;31.00;;;17.17;;
1682;SDS011;13252;53.596;10.060;2022-12-18T01:18:18;29.20;;;16.83;;
1682;SDS011;13252;53.596;10.060;2022-12-18T01:21:33;28.80;;;15.60;;
1682;SDS011;13252;53.596;10.060;2022-12-18T01:24:06;26.43;;;16.80;;
1682;SDS011;13252;53.596;10.060;2022-12-18T01:26:40;22.27;;;15.93;;
1682;SDS011;13252;53.596;10.060;2022-12-18T01:32:41;24.40;;;14.47;;
1682;SDS011;13252;53.596;10.060;2022-12-18T01:35:09;29.60;;;16.17;;
1682;SDS011;13252;53.596;10.060;2022-12-18T01:37:38;24.17;;;16.00;;
1682;SDS011;13252;53.596;10.060;2022-12-18T01:40:07;19.60;;;14.33;;
1682;SDS011;13252;53.596;10.060;2022-12-18T01:42:37;19.97;;;15.00;;
1682;SDS011;13252;53.596;10.060;2022-12-18T01:45:08;22.70;;;16.10;;
1682;SDS011;13252;53.596;10.060;2022-12-18T01:47:52;26.27;;;17.00;;
1682;SDS011;13252;53.596;10.060;2022-12-18T01:50:21;27.43;;;15.80;;
1682;SDS011;13252;53.596;10.060;2022-12-18T01:52:54;26.87;;;13.20;;
1682;SDS011;13252;53.596;10.060;2022-12-18T01:55:24;27.50;;;14.93;;
1682;SDS011;13252;53.596;10.060;2022-12-18T01:57:55;28.00;;;14.83;;
1682;SDS011;13252;53.596;10.060;2022-12-18T02:00:27;26.37;;;15.63;;
1682;SDS011;13252;53.596;10.060;2022-12-18T02:03:12;20.00;;;14.87;;
1682;SDS011;13252;53.596;10.060;2022-12-18T02:06:13;24.27;;;13.40;;
1682;SDS011;13252;53.596;10.060;2022-12-18T02:09:05;25.30;;;14.07;;
1682;SDS011;13252;53.596;10.060;2022-12-18T02:11:41;17.53;;;13.70;;
1682;SDS011;13252;53.596;10.060;2022-12-18T02:14:21;19.63;;;13.40;;
1682;SDS011;13252;53.596;10.060;2022-12-18T02:16:57;25.60;;;14.63;;
1682;SDS011;13252;53.596;10.060;2022-12-18T02:19:37;27.47;;;15.13;;
1682;SDS011;13252;53.596;10.060;2022-12-18T02:22:13;19.87;;;13.27;;
1682;SDS011;13252;53.596;10.060;2022-12-18T02:24:57;24.63;;;14.90;;
1682;SDS011;13252;53.596;10.060;2022-12-18T02:27:31;28.17;;;15.80;;
1682;SDS011;13252;53.596;10.060;2022-12-18T02:30:00;20.40;;;13.30;;
1682;SDS011;13252;53.596;10.060;2022-12-18T02:32:30;21.30;;;13.93;;
1682;SDS011;13252;53.596;10.060;2022-12-18T02:35:01;20.40;;;13.10;;
1682;SDS011;13252;53.596;10.060;2022-12-18T02:37:32;23.80;;;14.03;;
1682;SDS011;13252;53.596;10.060;2022-12-18T02:40:08;23.67;;;12.90;;
1682;SDS011;13252;53.596;10.060;2022-12-18T02:42:38;22.10;;;13.33;;
1682;SDS011;13252;53.596;10.060;2022-12-18T02:45:09;19.43;;;12.47;;
1682;SDS011;13252;53.596;10.060;2022-12-18T02:47:38;21.07;;;14.30;;
1682;SDS011;13252;53.596;10.060;2022-12-18T02:50:14;23.00;;;13.47;;
1682;SDS011;13252;53.596;10.060;2022-12-18T02:52:50;20.33;;;12.57;;
1682;SDS011;13252;53.596;10.060;2022-12-18T02:55:28;26.80;;;13.60;;
1682;SDS011;13252;53.596;10.060;2022-12-18T02:58:10;19.60;;;12.63;;
1682;SDS011;13252;53.596;10.060;2022-12-18T03:00:48;18.17;;;11.90;;
1682;SDS011;13252;53.596;10.060;2022-12-18T03:03:23;18.50;;;12.33;;
1682;SDS011;13252;53.596;10.060;2022-12-18T03:05:57;23.60;;;12.80;;
1682;SDS011;13252;53.596;10.060;2022-12-18T03:08:29;19.47;;;12.67;;
1682;SDS011;13252;53.596;10.060;2022-12-18T03:11:01;21.73;;;12.63;;
1682;SDS011;13252;53.596;10.060;2022-12-18T03:13:35;23.63;;;14.07;;
1682;SDS011;13252;53.596;10.060;2022-12-18T03:16:15;17.33;;;12.10;;
1682;SDS011;13252;53.596;10.060;2022-12-18T03:18:53;21.00;;;14.27;;
1682;SDS011;13252;53.596;10.060;2022-12-18T03:21:32;16.90;;;11.60;;
1682;SDS011;13252;53.596;10.060;2022-12-18T03:24:03;26.50;;;12.37;;
1682;SDS011;13252;53.596;10.060;2022-12-18T03:26:35;25.83;;;14.70;;
1682;SDS011;13252;53.596;10.060;2022-12-18T03:29:09;18.57;;;12.00;;
1682;SDS011;13252;53.596;10.060;2022-12-18T03:31:40;18.80;;;12.40;;
1682;SDS011;13252;53.596;10.060;2022-12-18T03:34:12;21.90;;;12.40;;
1682;SDS011;13252;53.596;10.060;2022-12-18T03:36:46;20.70;;;13.53;;
1682;SDS011;13252;53.596;10.060;2022-12-18T03:39:15;21.17;;;12.60;;
1682;SDS011;13252;53.596;10.060;2022-12-18T03:41:53;20.67;;;12.20;;
1682;SDS011;13252;53.596;10.060;2022-12-18T03:44:44;19.67;;;14.07;;
1682;SDS011;13252;53.596;10.060;2022-12-18T03:47:22;18.27;;;11.60;;
1682;SDS011;13252;53.596;10.060;2022-12-18T03:49:59;19.53;;;11.90;;
1682;SDS011;13252;53.596;10.060;2022-12-18T03:52:41;17.97;;;12.50;;
1682;SDS011;13252;53.596;10.060;2022-12-18T03:55:28;19.60;;;12.23;;
1682;SDS011;13252;53.596;10.060;2022-12-18T03:58:15;17.23;;;11.57;;
1682;SDS011;13252;53.596;10.060;2022-12-18T04:01:20;15.73;;;11.13;;
1682;SDS011;13252;53.596;10.060;2022-12-18T04:03:53;21.67;;;12.43;;
1682;SDS011;13252;53.596;10.060;2022-12-18T04:06:59;15.87;;;11.80;;
1682;SDS011;13252;53.596;10.060;2022-12-18T04:09:58;18.03;;;11.40;;
1682;SDS011;13252;53.596;10.060;2022-12-18T04:13:09;19.90;;;12.90;;
1682;SDS011;13252;53.596;10.060;2022-12-18T04:15:46;17.73;;;11.60;;
1682;SDS011;13252;53.596;10.060;2022-12-18T04:18:53;20.87;;;13.23;;
1682;SDS011;13252;53.596;10.060;2022-12-18T04:21:39;17.90;;;13.50;;
1682;SDS011;13252;53.596;10.060;2022-12-18T04:24:34;19.50;;;11.77;;
1682;SDS011;13252;53.596;10.060;2022-12-18T04:27:16;16.37;;;11.17;;
1682;SDS011;13252;53.596;10.060;2022-12-18T04:29:56;18.00;;;12.43;;
1682;SDS011;13252;53.596;10.060;2022-12-18T04:32:29;15.93;;;11.57;;
1682;SDS011;13252;53.596;10.060;2022-12-18T04:35:11;19.23;;;12.67;;
1682;SDS011;13252;53.596;10.060;2022-12-18T04:41:23;17.30;;;12.20;;
1682;SDS011;13252;53.596;10.060;2022-12-18T04:44:14;18.50;;;12.30;;
1682;SDS011;13252;53.596;10.060;2022-12-18T04:47:01;15.67;;;11.57;;
1682;SDS011;13252;53.596;10.060;2022-12-18T04:49:31;22.00;;;13.50;;
1682;SDS011;13252;53.596;10.060;2022-12-18T04:52:02;17.30;;;12.33;;
1682;SDS011;13252;53.596;10.060;2022-12-18T04:54:39;17.00;;;11.33;;
1682;SDS011;13252;53.596;10.060;2022-12-18T04:57:11;21.13;;;11.63;;
1682;SDS011;13252;53.596;10.060;2022-12-18T04:59:48;16.33;;;12.03;;
1682;SDS011;13252;53.596;10.060;2022-12-18T05:02:16;17.80;;;11.43;;
1682;SDS011;13252;53.596;10.060;2022-12-18T05:04:49;19.60;;;11.00;;
1682;SDS011;13252;53.596;10.060;2022-12-18T05:07:28;21.80;;;12.30;;
1682;SDS011;13252;53.596;10.060;2022-12-18T05:09:57;19.33;;;11.90;;
1682;SDS011;13252;53.596;10.060;2022-12-18T05:12:26;18.30;;;13.07;;
1682;SDS011;13252;53.596;10.060;2022-12-18T05:14:55;18.07;;;11.87;;
1682;SDS011;13252;53.596;10.060;2022-12-18T05:17:32;17.50;;;10.97;;
1682;SDS011;13252;53.596;10.060;2022-12-18T05:20:19;18.10;;;12.13;;
1682;SDS011;13252;53.596;10.060;2022-12-18T05:22:56;18.67;;;12.17;;
1682;SDS011;13252;53.596;10.060;2022-12-18T05:25:27;19.07;;;11.60;;
1682;SDS011;13252;53.596;10.060;2022-12-18T05:27:59;16.57;;;10.83;;
1682;SDS011;13252;53.596;10.060;2022-12-18T05:30:28;18.43;;;12.03;;
1682;SDS011;13252;53.596;10.060;2022-12-18T05:32:58;17.80;;;13.10;;
1682;SDS011;13252;53.596;10.060;2022-12-18T05:35:41;16.63;;;10.83;;
1682;SDS011;13252;53.596;10.060;2022-12-18T05:38:16;16.73;;;11.80;;
1682;SDS011;13252;53.596;10.060;2022-12-18T05:40:53;23.10;;;12.30;;
1682;SDS011;13252;53.596;10.060;2022-12-18T05:43:34;16.47;;;10.90;;
1682;SDS011;13252;53.596;10.060;2022-12-18T05:46:09;20.80;;;12.93;;
1682;SDS011;13252;53.596;10.060;2022-12-18T05:48:42;18.70;;;11.60;;
1682;SDS011;13252;53.596;10.060;2022-12-18T05:51:14;20.17;;;12.80;;
1682;SDS011;13252;53.596;10.060;2022-12-18T05:53:52;16.33;;;11.47;;
1682;SDS011;13252;53.596;10.060;2022-12-18T05:56:23;22.00;;;11.97;;
1682;SDS011;13252;53.596;10.060;2022-12-18T05:58:55;18.87;;;13.03;;
1682;SDS011;13252;53.596;10.060;2022-12-18T06:01:29;18.50;;;12.53;;
1682;SDS011;13252;53.596;10.060;2022-12-18T06:04:11;14.10;;;10.57;;
1682;SDS011;13252;53.596;10.060;2022-12-18T06:06:45;26.90;;;13.37;;
1682;SDS011;13252;53.596;10.060;2022-12-18T06:09:34;21.40;;;13.83;;
1682;SDS011;13252;53.596;10.060;2022-12-18T06:12:06;15.93;;;11.33;;
1682;SDS011;13252;53.596;10.060;2022-12-18T06:14:40;18.17;;;12.70;;
1682;SDS011;13252;53.596;10.060;2022-12-18T06:17:17;21.00;;;12.40;;
1682;SDS011;13252;53.596;10.060;2022-12-18T06:19:50;19.83;;;13.43;;
1682;SDS011;13252;53.596;10.060;2022-12-18T06:22:32;19.57;;;13.50;;
1682;SDS011;13252;53.596;10.060;2022-12-18T06:25:17;25.30;;;12.50;;
1682;SDS011;13252;53.596;10.060;2022-12-18T06:28:11;21.00;;;12.20;;
1682;SDS011;13252;53.596;10.060;2022-12-18T06:30:50;22.37;;;13.87;;
1682;SDS011;13252;53.596;10.060;2022-12-18T06:33:20;21.57;;;12.73;;
1682;SDS011;13252;53.596;10.060;2022-12-18T06:36:02;22.70;;;13.63;;
1682;SDS011;13252;53.596;10.060;2022-12-18T06:38:52;19.83;;;13.97;;
1682;SDS011;13252;53.596;10.060;2022-12-18T06:41:41;22.63;;;11.80;;
1682;SDS011;13252;53.596;10.060;2022-12-18T06:44:19;20.50;;;13.77;;
1682;SDS011;13252;53.596;10.060;2022-12-18T06:46:52;22.10;;;12.60;;
1682;SDS011;13252;53.596;10.060;2022-12-18T06:49:20;21.33;;;13.63;;
1682;SDS011;13252;53.596;10.060;2022-12-18T06:51:56;22.70;;;14.77;;
1682;SDS011;13252;53.596;10.060;2022-12-18T06:54:26;18.57;;;12.60;;
1682;SDS011;13252;53.596;10.060;2022-12-18T07:00:03;18.73;;;14.13;;
1682;SDS011;13252;53.596;10.060;2022-12-18T07:02:46;21.53;;;14.37;;
1682;SDS011;13252;53.596;10.060;2022-12-18T07:05:21;28.00;;;15.93;;
1682;SDS011;13252;53.596;10.060;2022-12-18T07:08:42;24.10;;;12.10;;
1682;SDS011;13252;53.596;10.060;2022-12-18T07:12:03;23.07;;;13.57;;
1682;SDS011;13252;53.596;10.060;2022-12-18T07:14:54;23.20;;;14.00;;
1682;SDS011;13252;53.596;10.060;2022-12-18T07:20:39;25.37;;;14.47;;
1682;SDS011;13252;53.596;10.060;2022-12-18T07:23:29;18.07;;;13.23;;
1682;SDS011;13252;53.596;10.060;2022-12-18T07:26:09;24.63;;;14.33;;
1682;SDS011;13252;53.596;10.060;2022-12-18T07:29:33;18.20;;;13.33;;
1682;SDS011;13252;53.596;10.060;2022-12-18T07:35:12;24.83;;;13.07;;
1682;SDS011;13252;53.596;10.060;2022-12-18T07:37:40;22.63;;;13.33;;
1682;SDS011;13252;53.596;10.060;2022-12-18T07:40:08;22.63;;;15.90;;
1682;SDS011;13252;53.596;10.060;2022-12-18T07:42:37;20.23;;;14.07;;
1682;SDS011;13252;53.596;10.060;2022-12-18T07:45:05;26.93;;;16.93;;
1682;SDS011;13252;53.596;10.060;2022-12-18T07:47:34;30.70;;;15.87;;
1682;SDS011;13252;53.596;10.060;2022-12-18T07:50:02;24.93;;;13.67;;
1682;SDS011;13252;53.596;10.060;2022-12-18T07:52:32;20.40;;;14.50;;
1682;SDS011;13252;53.596;10.060;2022-12-18T07:54:59;23.93;;;15.37;;
1682;SDS011;13252;53.596;10.060;2022-12-18T07:57:27;22.20;;;15.87;;
1682;SDS011;13252;53.596;10.060;2022-12-18T08:00:15;23.83;;;15.20;;
1682;SDS011;13252;53.596;10.060;2022-12-18T08:02:43;21.73;;;15.17;;
1682;SDS011;13252;53.596;10.060;2022-12-18T08:05:11;19.70;;;13.50;;
1682;SDS011;13252;53.596;10.060;2022-12-18T08:07:40;19.77;;;13.80;;
1682;SDS011;13252;53.596;10.060;2022-12-18T08:10:08;20.57;;;13.53;;
1682;SDS011;13252;53.596;10.060;2022-12-18T08:12:36;21.63;;;14.30;;
1682;SDS011;13252;53.596;10.060;2022-12-18T08:15:04;25.57;;;17.07;;
1682;SDS011;13252;53.596;10.060;2022-12-18T08:17:32;22.00;;;14.83;;
1682;SDS011;13252;53.596;10.060;2022-12-18T08:20:00;25.13;;;16.00;;
1682;SDS011;13252;53.596;10.060;2022-12-18T08:22:29;26.63;;;15.90;;
1682;SDS011;13252;53.596;10.060;2022-12-18T08:24:58;25.83;;;15.63;;
1682;SDS011;13252;53.596;10.060;2022-12-18T08:27:25;26.20;;;15.77;;
1682;SDS011;13252;53.596;10.060;2022-12-18T08:29:55;25.53;;;14.93;;
1682;SDS011;13252;53.596;10.060;2022-12-18T08:32:23;30.40;;;15.07;;
1682;SDS011;13252;53.596;10.060;2022-12-18T08:34:51;27.93;;;15.80;;
1682;SDS011;13252;53.596;10.060;2022-12-18T08:37:18;23.60;;;14.23;;
1682;SDS011;13252;53.596;10.060;2022-12-18T08:39:46;25.33;;;16.00;;
1682;SDS011;13252;53.596;10.060;2022-12-18T08:42:15;25.30;;;14.50;;
1682;SDS011;13252;53.596;10.060;2022-12-18T08:45:00;26.17;;;15.03;;
1682;SDS011;13252;53.596;10.060;2022-12-18T08:47:28;30.47;;;14.40;;
1682;SDS011;13252;53.596;10.060;2022-12-18T08:49:55;22.47;;;15.17;;
1682;SDS011;13252;53.596;10.060;2022-12-18T08:52:23;24.40;;;14.70;;
1682;SDS011;13252;53.596;10.060;2022-12-18T08:54:51;17.83;;;13.50;;
1682;SDS011;13252;53.596;10.060;2022-12-18T08:57:20;25.60;;;16.50;;
1682;SDS011;13252;53.596;10.060;2022-12-18T08:59:47;24.57;;;14.53;;
1682;SDS011;13252;53.596;10.060;2022-12-18T09:02:15;23.53;;;14.37;;
1682;SDS011;13252;53.596;10.060;2022-12-18T09:04:43;22.20;;;14.70;;
1682;SDS011;13252;53.596;10.060;2022-12-18T09:07:22;22.53;;;14.97;;
1682;SDS011;13252;53.596;10.060;2022-12-18T09:09:49;25.17;;;16.10;;
1682;SDS011;13252;53.596;10.060;2022-12-18T09:12:17;16.47;;;10.57;;
1682;SDS011;13252;53.596;10.060;2022-12-18T09:14:46;22.97;;;15.70;;
1682;SDS011;13252;53.596;10.060;2022-12-18T09:17:14;22.13;;;14.20;;
1682;SDS011;13252;53.596;10.060;2022-12-18T09:19:41;24.50;;;14.60;;
1682;SDS011;13252;53.596;10.060;2022-12-18T09:22:09;23.63;;;14.97;;
1682;SDS011;13252;53.596;10.060;2022-12-18T09:24:37;23.07;;;14.00;;
1682;SDS011;13252;53.596;10.060;2022-12-18T09:27:04;23.63;;;15.40;;
1682;SDS011;13252;53.596;10.060;2022-12-18T09:29:32;20.63;;;12.73;;
1682;SDS011;13252;53.596;10.060;2022-12-18T09:32:01;21.20;;;14.03;;
1682;SDS011;13252;53.596;10.060;2022-12-18T09:34:29;19.50;;;12.40;;
1682;SDS011;13252;53.596;10.060;2022-12-18T09:36:56;20.60;;;13.63;;
1682;SDS011;13252;53.596;10.060;2022-12-18T09:39:24;21.33;;;14.57;;
1682;SDS011;13252;53.596;10.060;2022-12-18T09:41:52;19.20;;;13.23;;
1682;SDS011;13252;53.596;10.060;2022-12-18T09:44:22;23.50;;;16.07;;
1682;SDS011;13252;53.596;10.060;2022-12-18T09:46:53;22.70;;;12.47;;
1682;SDS011;13252;53.596;10.060;2022-12-18T09:49:29;24.37;;;13.87;;
1682;SDS011;13252;53.596;10.060;2022-12-18T09:51:59;26.20;;;14.40;;
1682;SDS011;13252;53.596;10.060;2022-12-18T09:54:31;26.43;;;12.83;;
1682;SDS011;13252;53.596;10.060;2022-12-18T09:57:01;19.07;;;14.23;;
1682;SDS011;13252;53.596;10.060;2022-12-18T09:59:30;20.60;;;14.00;;
1682;SDS011;13252;53.596;10.060;2022-12-18T10:02:10;21.87;;;14.23;;
1682;SDS011;13252;53.596;10.060;2022-12-18T10:04:43;22.77;;;14.53;;
1682;SDS011;13252;53.596;10.060;2022-12-18T10:07:13;24.53;;;14.00;;
1682;SDS011;13252;53.596;10.060;2022-12-18T10:09:43;19.90;;;13.73;;
1682;SDS011;13252;53.596;10.060;2022-12-18T10:12:18;30.10;;;14.60;;
1682;SDS011;13252;53.596;10.060;2022-12-18T10:14:50;23.40;;;14.93;;
1682;SDS011;13252;53.596;10.060;2022-12-18T10:17:22;25.10;;;13.23;;
1682;SDS011;13252;53.596;10.060;2022-12-18T10:19:56;16.07;;;12.17;;
1682;SDS011;13252;53.596;10.060;2022-12-18T10:22:47;23.50;;;13.93;;
1682;SDS011;13252;53.596;10.060;2022-12-18T10:25:21;21.23;;;13.80;;
1682;SDS011;13252;53.596;10.060;2022-12-18T10:27:51;23.27;;;12.60;;
1682;SDS011;13252;53.596;10.060;2022-12-18T10:30:20;20.13;;;13.23;;
1682;SDS011;13252;53.596;10.060;2022-12-18T10:32:49;25.97;;;14.03;;
1682;SDS011;13252;53.596;10.060;2022-12-18T10:35:20;23.73;;;14.20;;
1682;SDS011;13252;53.596;10.060;2022-12-18T10:38:05;19.17;;;13.93;;
1682;SDS011;13252;53.596;10.060;2022-12-18T10:40:47;28.93;;;14.47;;
1682;SDS011;13252;53.596;10.060;2022-12-18T10:43:16;23.13;;;12.03;;
1682;SDS011;13252;53.596;10.060;2022-12-18T10:45:57;21.93;;;14.53;;
1682;SDS011;13252;53.596;10.060;2022-12-18T10:48:27;23.13;;;13.63;;
1682;SDS011;13252;53.596;10.060;2022-12-18T10:50:57;24.90;;;13.53;;
1682;SDS011;13252;53.596;10.060;2022-12-18T10:53:41;20.80;;;13.30;;
1682;SDS011;13252;53.596;10.060;2022-12-18T10:56:09;18.10;;;11.80;;
1682;SDS011;13252;53.596;10.060;2022-12-18T10:58:38;22.73;;;13.93;;
1682;SDS011;13252;53.596;10.060;2022-12-18T11:01:08;20.37;;;12.97;;
1682;SDS011;13252;53.596;10.060;2022-12-18T11:03:39;22.37;;;12.20;;
1682;SDS011;13252;53.596;10.060;2022-12-18T11:06:10;23.97;;;14.87;;
1682;SDS011;13252;53.596;10.060;2022-12-18T11:08:39;18.50;;;12.83;;
1682;SDS011;13252;53.596;10.060;2022-12-18T11:11:15;22.40;;;11.80;;
1682;SDS011;13252;53.596;10.060;2022-12-18T11:13:48;24.90;;;12.93;;
1682;SDS011;13252;53.596;10.060;2022-12-18T11:16:21;21.90;;;14.37;;
1682;SDS011;13252;53.596;10.060;2022-12-18T11:18:50;17.30;;;12.10;;
1682;SDS011;13252;53.596;10.060;2022-12-18T11:21:19;32.27;;;15.20;;
1682;SDS011;13252;53.596;10.060;2022-12-18T11:23:47;21.40;;;12.20;;
1682;SDS011;13252;53.596;10.060;2022-12-18T11:26:17;19.43;;;12.00;;
1682;SDS011;13252;53.596;10.060;2022-12-18T11:28:46;17.50;;;11.90;;
1682;SDS011;13252;53.596;10.060;2022-12-18T11:31:23;21.47;;;12.53;;
1682;SDS011;13252;53.596;10.060;2022-12-18T11:34:00;19.30;;;12.77;;
1682;SDS011;13252;53.596;10.060;2022-12-18T11:36:51;12.50;;;8.43;;
1682;SDS011;13252;53.596;10.060;2022-12-18T11:39:20;19.20;;;12.23;;
1682;SDS011;13252;53.596;10.060;2022-12-18T11:41:52;20.33;;;12.77;;
1682;SDS011;13252;53.596;10.060;2022-12-18T11:44:41;21.20;;;12.03;;
1682;SDS011;13252;53.596;10.060;2022-12-18T11:47:13;18.57;;;12.73;;
1682;SDS011;13252;53.596;10.060;2022-12-18T11:49:47;18.20;;;13.33;;
1682;SDS011;13252;53.596;10.060;2022-12-18T11:52:19;22.13;;;12.10;;
1682;SDS011;13252;53.596;10.060;2022-12-18T11:54:50;19.10;;;11.30;;
1682;SDS011;13252;53.596;10.060;2022-12-18T11:57:22;22.90;;;13.30;;
1682;SDS011;13252;53.596;10.060;2022-12-18T11:59:57;21.03;;;12.87;;
1682;SDS011;13252;53.596;10.060;2022-12-18T12:06:04;17.97;;;12.47;;
1682;SDS011;13252;53.596;10.060;2022-12-18T12:08:41;17.70;;;11.87;;
1682;SDS011;13252;53.596;10.060;2022-12-18T12:11:16;23.10;;;12.80;;
1682;SDS011;13252;53.596;10.060;2022-12-18T12:13:51;19.10;;;12.50;;
1682;SDS011;13252;53.596;10.060;2022-12-18T12:16:28;18.10;;;11.67;;
1682;SDS011;13252;53.596;10.060;2022-12-18T12:19:02;20.23;;;11.47;;
1682;SDS011;13252;53.596;10.060;2022-12-18T12:21:36;17.10;;;12.27;;
1682;SDS011;13252;53.596;10.060;2022-12-18T12:24:12;21.17;;;12.20;;
1682;SDS011;13252;53.596;10.060;2022-12-18T12:26:57;19.73;;;12.77;;
1682;SDS011;13252;53.596;10.060;2022-12-18T12:29:30;19.27;;;12.23;;
1682;SDS011;13252;53.596;10.060;2022-12-18T12:32:10;21.00;;;12.23;;
1682;SDS011;13252;53.596;10.060;2022-12-18T12:34:45;16.23;;;11.40;;
1682;SDS011;13252;53.596;10.060;2022-12-18T12:37:28;17.57;;;11.73;;
1682;SDS011;13252;53.596;10.060;2022-12-18T12:40:03;20.87;;;12.80;;
1682;SDS011;13252;53.596;10.060;2022-12-18T12:42:52;18.47;;;12.63;;
1682;SDS011;13252;53.596;10.060;2022-12-18T12:45:42;21.03;;;11.93;;
1682;SDS011;13252;53.596;10.060;2022-12-18T12:48:14;21.20;;;10.73;;
1682;SDS011;13252;53.596;10.060;2022-12-18T12:50:44;17.73;;;11.43;;
1682;SDS011;13252;53.596;10.060;2022-12-18T12:53:15;19.13;;;11.93;;
1682;SDS011;13252;53.596;10.060;2022-12-18T12:55:50;26.33;;;13.03;;
1682;SDS011;13252;53.596;10.060;2022-12-18T12:58:21;18.07;;;11.53;;
1682;SDS011;13252;53.596;10.060;2022-12-18T13:00:55;22.67;;;12.40;;
1682;SDS011;13252;53.596;10.060;2022-12-18T13:03:31;20.70;;;11.80;;
1682;SDS011;13252;53.596;10.060;2022-12-18T13:06:04;23.10;;;12.10;;
1682;SDS011;13252;53.596;10.060;2022-12-18T13:08:51;23.30;;;13.00;;
1682;SDS011;13252;53.596;10.060;2022-12-18T13:11:30;19.63;;;12.83;;
1682;SDS011;13252;53.596;10.060;2022-12-18T13:14:29;24.53;;;13.27;;
1682;SDS011;13252;53.596;10.060;2022-12-18T13:20:05;20.33;;;12.87;;
1682;SDS011;13252;53.596;10.060;2022-12-18T13:22:36;19.90;;;12.00;;
1682;SDS011;13252;53.596;10.060;2022-12-18T13:28:07;23.73;;;13.33;;
1682;SDS011;13252;53.596;10.060;2022-12-18T13:30:46;22.10;;;13.20;;
1682;SDS011;13252;53.596;10.060;2022-12-18T13:36:37;21.40;;;13.10;;
1682;SDS011;13252;53.596;10.060;2022-12-18T13:39:09;23.17;;;13.53;;
1682;SDS011;13252;53.596;10.060;2022-12-18T13:41:39;22.70;;;15.10;;
1682;SDS011;13252;53.596;10.060;2022-12-18T13:44:12;27.73;;;13.73;;
1682;SDS011;13252;53.596;10.060;2022-12-18T13:46:44;23.97;;;14.87;;
1682;SDS011;13252;53.596;10.060;2022-12-18T13:49:19;38.73;;;15.63;;
1682;SDS011;13252;53.596;10.060;2022-12-18T13:51:51;28.37;;;14.37;;
1682;SDS011;13252;53.596;10.060;2022-12-18T13:54:22;21.13;;;13.73;;
1682;SDS011;13252;53.596;10.060;2022-12-18T13:56:52;24.67;;;14.23;;
1682;SDS011;13252;53.596;10.060;2022-12-18T13:59:22;27.37;;;13.33;;
1682;SDS011;13252;53.596;10.060;2022-12-18T14:01:52;25.37;;;13.93;;
1682;SDS011;13252;53.596;10.060;2022-12-18T14:04:23;27.93;;;12.83;;
1682;SDS011;13252;53.596;10.060;2022-12-18T14:06:54;27.13;;;14.10;;
1682;SDS011;13252;53.596;10.060;2022-12-18T14:09:24;25.23;;;14.10;;
1682;SDS011;13252;53.596;10.060;2022-12-18T14:11:55;27.60;;;14.20;;
1682;SDS011;13252;53.596;10.060;2022-12-18T14:14:46;25.07;;;14.30;;
1682;SDS011;13252;53.596;10.060;2022-12-18T14:17:18;27.13;;;14.20;;
1682;SDS011;13252;53.596;10.060;2022-12-18T14:19:48;26.27;;;12.87;;
1682;SDS011;13252;53.596;10.060;2022-12-18T14:22:17;28.93;;;13.30;;
1682;SDS011;13252;53.596;10.060;2022-12-18T14:24:46;32.50;;;15.10;;
1682;SDS011;13252;53.596;10.060;2022-12-18T14:27:20;27.23;;;14.40;;
1682;SDS011;13252;53.596;10.060;2022-12-18T14:29:50;28.03;;;15.30;;
1682;SDS011;13252;53.596;10.060;2022-12-18T14:32:19;27.37;;;14.27;;
1682;SDS011;13252;53.596;10.060;2022-12-18T14:34:48;25.03;;;13.23;;
1682;SDS011;13252;53.596;10.060;2022-12-18T14:37:17;30.93;;;16.20;;
1682;SDS011;13252;53.596;10.060;2022-12-18T14:39:54;25.07;;;13.97;;
1682;SDS011;13252;53.596;10.060;2022-12-18T14:42:30;33.93;;;15.90;;
1682;SDS011;13252;53.596;10.060;2022-12-18T14:48:11;27.10;;;14.50;;
1682;SDS011;13252;53.596;10.060;2022-12-18T14:50:55;29.67;;;17.20;;
1682;SDS011;13252;53.596;10.060;2022-12-18T14:53:28;37.50;;;17.63;;
1682;SDS011;13252;53.596;10.060;2022-12-18T14:56:13;32.73;;;16.90;;
1682;SDS011;13252;53.596;10.060;2022-12-18T14:58:47;28.73;;;14.93;;
1682;SDS011;13252;53.596;10.060;2022-12-18T15:01:20;32.30;;;16.20;;
1682;SDS011;13252;53.596;10.060;2022-12-18T15:03:50;37.70;;;17.77;;
1682;SDS011;13252;53.596;10.060;2022-12-18T15:06:24;26.57;;;14.60;;
1682;SDS011;13252;53.596;10.060;2022-12-18T15:08:54;37.73;;;16.93;;
1682;SDS011;13252;53.596;10.060;2022-12-18T15:11:25;29.63;;;16.20;;
1682;SDS011;13252;53.596;10.060;2022-12-18T15:13:54;32.73;;;15.97;;
1682;SDS011;13252;53.596;10.060;2022-12-18T15:16:23;26.77;;;15.47;;
1682;SDS011;13252;53.596;10.060;2022-12-18T15:18:51;34.67;;;17.87;;
1682;SDS011;13252;53.596;10.060;2022-12-18T15:21:20;30.83;;;16.40;;
1682;SDS011;13252;53.596;10.060;2022-12-18T15:23:49;32.33;;;17.53;;
1682;SDS011;13252;53.596;10.060;2022-12-18T15:26:20;36.50;;;17.30;;
1682;SDS011;13252;53.596;10.060;2022-12-18T15:28:50;38.13;;;17.03;;
1682;SDS011;13252;53.596;10.060;2022-12-18T15:31:21;29.70;;;14.60;;
1682;SDS011;13252;53.596;10.060;2022-12-18T15:34:05;34.37;;;16.80;;
1682;SDS011;13252;53.596;10.060;2022-12-18T15:36:37;35.00;;;17.23;;
1682;SDS011;13252;53.596;10.060;2022-12-18T15:39:05;30.40;;;16.70;;
1682;SDS011;13252;53.596;10.060;2022-12-18T15:41:33;32.50;;;15.80;;
1682;SDS011;13252;53.596;10.060;2022-12-18T15:44:02;34.33;;;17.20;;
1682;SDS011;13252;53.596;10.060;2022-12-18T15:46:31;35.97;;;17.40;;
1682;SDS011;13252;53.596;10.060;2022-12-18T15:48:59;38.53;;;16.27;;
1682;SDS011;13252;53.596;10.060;2022-12-18T15:51:31;30.07;;;16.70;;
1682;SDS011;13252;53.596;10.060;2022-12-18T15:54:00;32.90;;;15.90;;